Wausau Downtown Airport
KAUW : now visible

Airfield :











YOU CAN JOIN US ON...

 
LOGIN :

Register | Disclaimer

   EN    FR    IT 

 









Legend :    VFR   Marginal VFR   IFR   Intensive IFR   Very Intensive IFR
Visi :
Ceiling :
>= 8 km
>= 3000ft
5 to 8 km
1000 to 3000 ft
1500m to 5 km
500 to 1000 ft
800 to 1500m
200 to 500 ft
< 800m
< 200 ft
Symbols :   Thunderstorms  Fog  Heavy snow  Heavy precipitations  Wind > 20 kt






- Airport Elevation : 1201 ft


KAUW - Wausau Downtown

CURRENT METAR :
  • 230654Z AUTO 28005KT 10SM CLR M14/M21 A3021 RMK AO2 SLP264 T11441206 $

EXPIRED METARs :
  • 230554Z AUTO 26006KT 10SM FEW060 M14/M21 A3021 RMK AO2 SLP262 T11441206 11122 21144 411061150 51008 $
  • 230454Z AUTO 27008KT 10SM BKN070 OVC090 M13/M20 A3021 RMK AO2 SLP262 T11281200 $

TAF KAUW
Valid from the 23 at 06:00 until the 24 at 06:00 UTC


230520Z 2306/2406 26003KT P6SM BKN070
FM231200 22003KT P6SM SCT030 BKN070
TEMPO 2312/2315 BKN030
FM231500 21005KT P6SM SCT070 BKN250
FM240200 15005KT 5SM -SN OVC035
FM240500 14005KT 2SM -SN OVC015
KZMP FIR / North America



MET'MAP, your aeronautical weather chart ! - Copyright ORBIFLY December 2007 - Disclaimer

ORBIFLY MET'MAP TEAM :

Programming & Development : Alexandra Zaïnal
Concept & original design : Baudouin d'Aumeries
Assistance for programming : Marc-Olivier Méhu
Technical & hardware support : Manuel Goepfert

Contact : metmap@orbifly.com




SOURCES & CREDITS :

   NOAA       Earth
Advisory